sensor_id;sensor_type;location;lat;lon;timestamp;temperature;humidity
37232;DHT22;23125;48.156;15.954;2022-12-05T00:03:48;8.10;66.80
37232;DHT22;23125;48.156;15.954;2022-12-05T00:06:15;8.10;66.80
37232;DHT22;23125;48.156;15.954;2022-12-05T00:08:41;8.10;66.80
37232;DHT22;23125;48.156;15.954;2022-12-05T00:11:20;8.10;66.80
37232;DHT22;23125;48.156;15.954;2022-12-05T00:13:47;8.10;66.70
37232;DHT22;23125;48.156;15.954;2022-12-05T00:16:17;8.10;66.70
37232;DHT22;23125;48.156;15.954;2022-12-05T00:18:43;8.10;66.80
37232;DHT22;23125;48.156;15.954;2022-12-05T00:21:17;8.10;66.80
37232;DHT22;23125;48.156;15.954;2022-12-05T00:23:43;8.10;66.80
37232;DHT22;23125;48.156;15.954;2022-12-05T00:26:10;8.10;66.80
37232;DHT22;23125;48.156;15.954;2022-12-05T00:28:36;8.10;66.80
37232;DHT22;23125;48.156;15.954;2022-12-05T00:31:11;8.10;66.80
37232;DHT22;23125;48.156;15.954;2022-12-05T00:33:38;8.10;66.90
37232;DHT22;23125;48.156;15.954;2022-12-05T00:36:10;8.10;66.80
37232;DHT22;23125;48.156;15.954;2022-12-05T00:38:37;8.10;66.80
37232;DHT22;23125;48.156;15.954;2022-12-05T00:41:05;8.10;66.80
37232;DHT22;23125;48.156;15.954;2022-12-05T00:43:31;8.10;66.70
37232;DHT22;23125;48.156;15.954;2022-12-05T00:46:03;8.10;66.70
37232;DHT22;23125;48.156;15.954;2022-12-05T00:48:30;8.10;66.70
37232;DHT22;23125;48.156;15.954;2022-12-05T00:51:03;8.10;66.50
37232;DHT22;23125;48.156;15.954;2022-12-05T00:53:29;8.10;66.50
37232;DHT22;23125;48.156;15.954;2022-12-05T00:55:59;8.10;66.60
37232;DHT22;23125;48.156;15.954;2022-12-05T00:58:26;8.10;66.50
37232;DHT22;23125;48.156;15.954;2022-12-05T01:00:52;8.10;66.50
37232;DHT22;23125;48.156;15.954;2022-12-05T01:03:17;8.10;66.50
37232;DHT22;23125;48.156;15.954;2022-12-05T01:05:43;8.20;66.50
37232;DHT22;23125;48.156;15.954;2022-12-05T01:08:09;8.10;66.40
37232;DHT22;23125;48.156;15.954;2022-12-05T01:10:35;8.10;66.40
37232;DHT22;23125;48.156;15.954;2022-12-05T01:13:00;8.10;66.40
37232;DHT22;23125;48.156;15.954;2022-12-05T01:15:26;8.10;66.30
37232;DHT22;23125;48.156;15.954;2022-12-05T01:17:52;8.10;66.40
37232;DHT22;23125;48.156;15.954;2022-12-05T01:20:18;8.10;66.40
37232;DHT22;23125;48.156;15.954;2022-12-05T01:22:44;8.10;66.40
37232;DHT22;23125;48.156;15.954;2022-12-05T01:25:10;8.00;66.30
37232;DHT22;23125;48.156;15.954;2022-12-05T01:27:35;8.00;66.40
37232;DHT22;23125;48.156;15.954;2022-12-05T01:30:02;8.00;66.40
37232;DHT22;23125;48.156;15.954;2022-12-05T01:32:28;8.00;66.40
37232;DHT22;23125;48.156;15.954;2022-12-05T01:34:54;8.00;66.50
37232;DHT22;23125;48.156;15.954;2022-12-05T01:37:19;8.00;66.50
37232;DHT22;23125;48.156;15.954;2022-12-05T01:39:47;8.00;66.50
37232;DHT22;23125;48.156;15.954;2022-12-05T01:42:13;8.00;66.50
37232;DHT22;23125;48.156;15.954;2022-12-05T01:47:08;8.00;66.40
37232;DHT22;23125;48.156;15.954;2022-12-05T01:49:39;8.00;66.50
37232;DHT22;23125;48.156;15.954;2022-12-05T01:52:13;7.90;66.40
37232;DHT22;23125;48.156;15.954;2022-12-05T01:54:41;7.90;66.30
37232;DHT22;23125;48.156;15.954;2022-12-05T01:57:10;7.90;66.40
37232;DHT22;23125;48.156;15.954;2022-12-05T01:59:40;7.90;66.40
37232;DHT22;23125;48.156;15.954;2022-12-05T02:02:07;7.90;66.40
37232;DHT22;23125;48.156;15.954;2022-12-05T02:04:37;7.80;66.30
37232;DHT22;23125;48.156;15.954;2022-12-05T02:07:06;7.80;66.30
37232;DHT22;23125;48.156;15.954;2022-12-05T02:09:32;7.80;66.40
37232;DHT22;23125;48.156;15.954;2022-12-05T02:12:01;7.80;66.50
37232;DHT22;23125;48.156;15.954;2022-12-05T02:14:53;7.70;66.40
37232;DHT22;23125;48.156;15.954;2022-12-05T02:32:48;7.60;66.60
37232;DHT22;23125;48.156;15.954;2022-12-05T02:43:43;7.50;66.40
37232;DHT22;23125;48.156;15.954;2022-12-05T02:46:15;7.60;66.50
37232;DHT22;23125;48.156;15.954;2022-12-05T02:48:44;7.50;66.40
37232;DHT22;23125;48.156;15.954;2022-12-05T02:51:14;7.50;66.40
37232;DHT22;23125;48.156;15.954;2022-12-05T02:53:43;7.50;66.40
37232;DHT22;23125;48.156;15.954;2022-12-05T02:56:09;7.50;66.40
37232;DHT22;23125;48.156;15.954;2022-12-05T02:58:46;7.50;66.40
37232;DHT22;23125;48.156;15.954;2022-12-05T03:01:13;7.50;66.40
37232;DHT22;23125;48.156;15.954;2022-12-05T03:03:39;7.50;66.30
37232;DHT22;23125;48.156;15.954;2022-12-05T03:09:04;7.50;66.10
37232;DHT22;23125;48.156;15.954;2022-12-05T03:11:44;7.40;66.10
37232;DHT22;23125;48.156;15.954;2022-12-05T03:14:18;7.40;66.10
37232;DHT22;23125;48.156;15.954;2022-12-05T03:16:51;7.40;66.30
37232;DHT22;23125;48.156;15.954;2022-12-05T03:19:25;7.40;66.50
37232;DHT22;23125;48.156;15.954;2022-12-05T03:22:02;7.50;66.60
37232;DHT22;23125;48.156;15.954;2022-12-05T03:24:35;7.40;66.50
37232;DHT22;23125;48.156;15.954;2022-12-05T03:32:15;7.40;66.50
37232;DHT22;23125;48.156;15.954;2022-12-05T03:40:30;7.40;66.50
37232;DHT22;23125;48.156;15.954;2022-12-05T03:43:17;7.30;66.40
37232;DHT22;23125;48.156;15.954;2022-12-05T03:45:59;7.30;66.60
37232;DHT22;23125;48.156;15.954;2022-12-05T03:48:31;7.30;66.70
37232;DHT22;23125;48.156;15.954;2022-12-05T03:51:00;7.40;66.80
37232;DHT22;23125;48.156;15.954;2022-12-05T03:53:40;7.40;66.80
37232;DHT22;23125;48.156;15.954;2022-12-05T03:56:15;7.40;66.80
37232;DHT22;23125;48.156;15.954;2022-12-05T03:59:10;7.40;66.70
37232;DHT22;23125;48.156;15.954;2022-12-05T04:01:41;7.40;66.60
37232;DHT22;23125;48.156;15.954;2022-12-05T04:04:16;7.40;66.50
37232;DHT22;23125;48.156;15.954;2022-12-05T04:06:46;7.40;66.50
37232;DHT22;23125;48.156;15.954;2022-12-05T04:09:23;7.40;66.30
37232;DHT22;23125;48.156;15.954;2022-12-05T04:11:56;7.30;66.20
37232;DHT22;23125;48.156;15.954;2022-12-05T04:14:30;7.30;66.00
37232;DHT22;23125;48.156;15.954;2022-12-05T04:19:58;7.20;66.10
37232;DHT22;23125;48.156;15.954;2022-12-05T04:22:43;7.30;66.20
37232;DHT22;23125;48.156;15.954;2022-12-05T04:25:11;7.30;66.20
37232;DHT22;23125;48.156;15.954;2022-12-05T04:28:26;7.30;66.10
37232;DHT22;23125;48.156;15.954;2022-12-05T04:31:18;7.20;66.10
37232;DHT22;23125;48.156;15.954;2022-12-05T04:36:34;7.20;66.20
37232;DHT22;23125;48.156;15.954;2022-12-05T04:39:36;7.20;66.50
37232;DHT22;23125;48.156;15.954;2022-12-05T04:42:07;7.20;66.70
37232;DHT22;23125;48.156;15.954;2022-12-05T04:44:44;7.20;66.80
37232;DHT22;23125;48.156;15.954;2022-12-05T04:47:14;7.30;66.90
37232;DHT22;23125;48.156;15.954;2022-12-05T04:49:42;7.30;67.00
37232;DHT22;23125;48.156;15.954;2022-12-05T04:52:10;7.30;66.90
37232;DHT22;23125;48.156;15.954;2022-12-05T04:54:51;7.40;67.00
37232;DHT22;23125;48.156;15.954;2022-12-05T04:57:32;7.40;67.00
37232;DHT22;23125;48.156;15.954;2022-12-05T05:00:02;7.40;67.60
37232;DHT22;23125;48.156;15.954;2022-12-05T05:02:37;7.40;66.80
37232;DHT22;23125;48.156;15.954;2022-12-05T05:05:07;7.50;66.90
37232;DHT22;23125;48.156;15.954;2022-12-05T05:07:48;7.50;66.90
37232;DHT22;23125;48.156;15.954;2022-12-05T05:10:17;7.50;66.90
37232;DHT22;23125;48.156;15.954;2022-12-05T05:12:44;7.60;67.00
37232;DHT22;23125;48.156;15.954;2022-12-05T05:15:10;7.60;67.00
37232;DHT22;23125;48.156;15.954;2022-12-05T05:17:36;7.60;66.80
37232;DHT22;23125;48.156;15.954;2022-12-05T05:20:02;7.60;67.50
37232;DHT22;23125;48.156;15.954;2022-12-05T05:22:51;7.70;66.90
37232;DHT22;23125;48.156;15.954;2022-12-05T05:25:18;7.70;66.90
37232;DHT22;23125;48.156;15.954;2022-12-05T05:27:49;7.70;66.80
37232;DHT22;23125;48.156;15.954;2022-12-05T05:30:16;7.70;66.80
37232;DHT22;23125;48.156;15.954;2022-12-05T05:32:42;7.70;66.70
37232;DHT22;23125;48.156;15.954;2022-12-05T05:35:09;7.70;66.40
37232;DHT22;23125;48.156;15.954;2022-12-05T05:37:37;7.70;66.30
37232;DHT22;23125;48.156;15.954;2022-12-05T05:40:05;7.70;66.20
37232;DHT22;23125;48.156;15.954;2022-12-05T05:42:31;7.70;66.30
37232;DHT22;23125;48.156;15.954;2022-12-05T05:44:57;7.70;66.30
37232;DHT22;23125;48.156;15.954;2022-12-05T05:47:22;7.70;66.20
37232;DHT22;23125;48.156;15.954;2022-12-05T05:49:48;7.70;66.20
37232;DHT22;23125;48.156;15.954;2022-12-05T05:52:14;7.70;66.20
37232;DHT22;23125;48.156;15.954;2022-12-05T05:54:40;7.70;66.20
37232;DHT22;23125;48.156;15.954;2022-12-05T05:57:06;7.70;66.10
37232;DHT22;23125;48.156;15.954;2022-12-05T05:59:32;7.60;65.90
37232;DHT22;23125;48.156;15.954;2022-12-05T06:01:58;7.60;65.90
37232;DHT22;23125;48.156;15.954;2022-12-05T06:04:23;7.60;65.90
37232;DHT22;23125;48.156;15.954;2022-12-05T06:06:49;7.60;66.00
37232;DHT22;23125;48.156;15.954;2022-12-05T06:09:15;7.60;66.00
37232;DHT22;23125;48.156;15.954;2022-12-05T06:11:41;7.60;66.00
37232;DHT22;23125;48.156;15.954;2022-12-05T06:14:07;7.60;66.30
37232;DHT22;23125;48.156;15.954;2022-12-05T06:16:33;7.50;66.40
37232;DHT22;23125;48.156;15.954;2022-12-05T06:18:59;7.50;66.50
37232;DHT22;23125;48.156;15.954;2022-12-05T06:21:25;7.50;66.60
37232;DHT22;23125;48.156;15.954;2022-12-05T06:23:51;7.50;66.60
37232;DHT22;23125;48.156;15.954;2022-12-05T06:26:19;7.50;66.50
37232;DHT22;23125;48.156;15.954;2022-12-05T06:28:46;7.50;66.60
37232;DHT22;23125;48.156;15.954;2022-12-05T06:31:14;7.50;66.50
37232;DHT22;23125;48.156;15.954;2022-12-05T06:33:41;7.50;66.40
37232;DHT22;23125;48.156;15.954;2022-12-05T06:36:12;7.50;66.60
37232;DHT22;23125;48.156;15.954;2022-12-05T06:38:39;7.50;66.70
37232;DHT22;23125;48.156;15.954;2022-12-05T06:41:09;7.50;66.70
37232;DHT22;23125;48.156;15.954;2022-12-05T06:43:36;7.50;67.00
37232;DHT22;23125;48.156;15.954;2022-12-05T06:46:06;7.50;67.10
37232;DHT22;23125;48.156;15.954;2022-12-05T06:48:32;7.50;67.00
37232;DHT22;23125;48.156;15.954;2022-12-05T06:50:58;7.50;66.90
37232;DHT22;23125;48.156;15.954;2022-12-05T06:53:24;7.50;66.80
37232;DHT22;23125;48.156;15.954;2022-12-05T06:56:01;7.50;66.80
37232;DHT22;23125;48.156;15.954;2022-12-05T06:58:28;7.60;67.00
37232;DHT22;23125;48.156;15.954;2022-12-05T07:00:54;7.50;67.00
37232;DHT22;23125;48.156;15.954;2022-12-05T07:03:39;7.60;67.20
37232;DHT22;23125;48.156;15.954;2022-12-05T07:06:06;7.60;67.30
37232;DHT22;23125;48.156;15.954;2022-12-05T07:08:33;7.60;67.10
37232;DHT22;23125;48.156;15.954;2022-12-05T07:10:59;7.60;67.00
37232;DHT22;23125;48.156;15.954;2022-12-05T07:13:25;7.70;67.00
37232;DHT22;23125;48.156;15.954;2022-12-05T07:15:50;7.60;66.90
37232;DHT22;23125;48.156;15.954;2022-12-05T07:18:17;7.60;67.00
37232;DHT22;23125;48.156;15.954;2022-12-05T07:20:44;7.60;67.00
37232;DHT22;23125;48.156;15.954;2022-12-05T07:23:10;7.70;67.00
37232;DHT22;23125;48.156;15.954;2022-12-05T07:25:39;7.60;66.90
37232;DHT22;23125;48.156;15.954;2022-12-05T07:28:06;7.70;67.00
37232;DHT22;23125;48.156;15.954;2022-12-05T07:30:33;7.70;67.30
37232;DHT22;23125;48.156;15.954;2022-12-05T07:32:59;7.70;67.10
37232;DHT22;23125;48.156;15.954;2022-12-05T07:35:24;7.70;67.00
37232;DHT22;23125;48.156;15.954;2022-12-05T07:37:50;7.70;66.90
37232;DHT22;23125;48.156;15.954;2022-12-05T07:40:16;7.70;66.90
37232;DHT22;23125;48.156;15.954;2022-12-05T07:42:42;7.70;66.70
37232;DHT22;23125;48.156;15.954;2022-12-05T07:45:08;7.70;66.70
37232;DHT22;23125;48.156;15.954;2022-12-05T07:47:34;7.70;66.90
37232;DHT22;23125;48.156;15.954;2022-12-05T07:50:00;7.60;66.70
37232;DHT22;23125;48.156;15.954;2022-12-05T07:52:26;7.60;66.80
37232;DHT22;23125;48.156;15.954;2022-12-05T07:54:53;7.60;66.90
37232;DHT22;23125;48.156;15.954;2022-12-05T07:57:18;7.60;67.00
37232;DHT22;23125;48.156;15.954;2022-12-05T07:59:44;7.60;67.10
37232;DHT22;23125;48.156;15.954;2022-12-05T08:02:10;7.60;67.20
37232;DHT22;23125;48.156;15.954;2022-12-05T08:04:36;7.60;67.30
37232;DHT22;23125;48.156;15.954;2022-12-05T08:07:02;7.70;67.50
37232;DHT22;23125;48.156;15.954;2022-12-05T08:09:28;7.70;67.40
37232;DHT22;23125;48.156;15.954;2022-12-05T08:11:54;7.70;67.50
37232;DHT22;23125;48.156;15.954;2022-12-05T08:14:20;7.70;67.60
37232;DHT22;23125;48.156;15.954;2022-12-05T08:16:46;7.80;67.70
37232;DHT22;23125;48.156;15.954;2022-12-05T08:19:12;7.80;67.60
37232;DHT22;23125;48.156;15.954;2022-12-05T08:21:38;7.80;67.30
37232;DHT22;23125;48.156;15.954;2022-12-05T08:24:06;7.90;67.30
37232;DHT22;23125;48.156;15.954;2022-12-05T08:26:33;7.90;67.40
37232;DHT22;23125;48.156;15.954;2022-12-05T08:29:06;7.90;67.40
37232;DHT22;23125;48.156;15.954;2022-12-05T08:31:35;7.90;67.30
37232;DHT22;23125;48.156;15.954;2022-12-05T08:34:01;7.90;67.60
37232;DHT22;23125;48.156;15.954;2022-12-05T08:36:28;8.00;67.90
37232;DHT22;23125;48.156;15.954;2022-12-05T08:38:56;8.00;67.50
37232;DHT22;23125;48.156;15.954;2022-12-05T08:41:22;8.00;67.30
37232;DHT22;23125;48.156;15.954;2022-12-05T08:43:54;8.00;67.50
37232;DHT22;23125;48.156;15.954;2022-12-05T08:46:20;8.10;67.40
37232;DHT22;23125;48.156;15.954;2022-12-05T08:48:46;8.00;67.20
37232;DHT22;23125;48.156;15.954;2022-12-05T08:51:12;8.10;67.30
37232;DHT22;23125;48.156;15.954;2022-12-05T08:53:39;8.10;67.50
37232;DHT22;23125;48.156;15.954;2022-12-05T08:56:07;8.10;67.60
37232;DHT22;23125;48.156;15.954;2022-12-05T08:58:34;8.20;67.90
37232;DHT22;23125;48.156;15.954;2022-12-05T09:03:29;8.30;68.00
37232;DHT22;23125;48.156;15.954;2022-12-05T09:06:11;8.40;68.10
37232;DHT22;23125;48.156;15.954;2022-12-05T09:08:38;8.40;67.80
37232;DHT22;23125;48.156;15.954;2022-12-05T09:11:08;8.50;67.90
37232;DHT22;23125;48.156;15.954;2022-12-05T09:13:35;8.50;67.50
37232;DHT22;23125;48.156;15.954;2022-12-05T09:16:08;8.50;67.70
37232;DHT22;23125;48.156;15.954;2022-12-05T09:18:34;8.50;67.60
37232;DHT22;23125;48.156;15.954;2022-12-05T09:21:15;8.70;67.80
37232;DHT22;23125;48.156;15.954;2022-12-05T09:23:41;8.60;67.70
37232;DHT22;23125;48.156;15.954;2022-12-05T09:26:10;8.70;67.70
37232;DHT22;23125;48.156;15.954;2022-12-05T09:28:38;8.70;67.50
37232;DHT22;23125;48.156;15.954;2022-12-05T09:31:07;8.70;67.50
37232;DHT22;23125;48.156;15.954;2022-12-05T09:33:35;8.80;67.60
37232;DHT22;23125;48.156;15.954;2022-12-05T09:36:03;8.80;67.50
37232;DHT22;23125;48.156;15.954;2022-12-05T09:38:30;8.90;67.50
37232;DHT22;23125;48.156;15.954;2022-12-05T09:41:43;8.90;67.50
37232;DHT22;23125;48.156;15.954;2022-12-05T09:52:39;9.00;67.20
37232;DHT22;23125;48.156;15.954;2022-12-05T09:55:15;9.00;67.20
37232;DHT22;23125;48.156;15.954;2022-12-05T09:57:51;9.00;67.10
37232;DHT22;23125;48.156;15.954;2022-12-05T10:00:17;9.10;67.10
37232;DHT22;23125;48.156;15.954;2022-12-05T10:02:49;9.10;67.10
37232;DHT22;23125;48.156;15.954;2022-12-05T10:05:22;9.10;67.00
37232;DHT22;23125;48.156;15.954;2022-12-05T10:08:07;9.20;66.90
37232;DHT22;23125;48.156;15.954;2022-12-05T10:11:01;9.20;66.90
37232;DHT22;23125;48.156;15.954;2022-12-05T10:16:17;9.20;66.80
37232;DHT22;23125;48.156;15.954;2022-12-05T10:18:49;9.20;66.60
37232;DHT22;23125;48.156;15.954;2022-12-05T10:23:57;9.30;66.60
37232;DHT22;23125;48.156;15.954;2022-12-05T10:26:43;9.30;66.50
37232;DHT22;23125;48.156;15.954;2022-12-05T10:29:32;9.30;66.40
37232;DHT22;23125;48.156;15.954;2022-12-05T10:32:12;9.30;66.40
37232;DHT22;23125;48.156;15.954;2022-12-05T10:34:41;9.30;66.20
37232;DHT22;23125;48.156;15.954;2022-12-05T10:37:19;9.30;66.20
37232;DHT22;23125;48.156;15.954;2022-12-05T10:39:46;9.30;66.20
37232;DHT22;23125;48.156;15.954;2022-12-05T10:42:16;9.20;66.20
37232;DHT22;23125;48.156;15.954;2022-12-05T10:44:44;9.20;66.00
37232;DHT22;23125;48.156;15.954;2022-12-05T10:47:10;9.30;66.00
37232;DHT22;23125;48.156;15.954;2022-12-05T10:49:37;9.30;66.00
37232;DHT22;23125;48.156;15.954;2022-12-05T10:52:04;9.20;65.90
37232;DHT22;23125;48.156;15.954;2022-12-05T10:54:35;9.20;65.90
37232;DHT22;23125;48.156;15.954;2022-12-05T10:59:47;9.20;65.90
37232;DHT22;23125;48.156;15.954;2022-12-05T11:02:26;9.20;65.90
37232;DHT22;23125;48.156;15.954;2022-12-05T11:04:53;9.20;65.80
37232;DHT22;23125;48.156;15.954;2022-12-05T11:07:30;9.20;65.90
37232;DHT22;23125;48.156;15.954;2022-12-05T11:09:58;9.20;66.00
37232;DHT22;23125;48.156;15.954;2022-12-05T11:12:42;9.30;66.10
37232;DHT22;23125;48.156;15.954;2022-12-05T11:17:44;9.30;66.30
37232;DHT22;23125;48.156;15.954;2022-12-05T11:22:43;9.30;66.10
37232;DHT22;23125;48.156;15.954;2022-12-05T11:25:33;9.40;66.10
37232;DHT22;23125;48.156;15.954;2022-12-05T11:33:38;9.40;65.80
37232;DHT22;23125;48.156;15.954;2022-12-05T11:36:16;9.40;65.70
37232;DHT22;23125;48.156;15.954;2022-12-05T11:38:43;9.40;65.70
37232;DHT22;23125;48.156;15.954;2022-12-05T11:42:01;9.40;65.70
37232;DHT22;23125;48.156;15.954;2022-12-05T11:55:20;9.50;65.80
37232;DHT22;23125;48.156;15.954;2022-12-05T12:08:37;9.60;65.70
37232;DHT22;23125;48.156;15.954;2022-12-05T12:16:38;9.60;65.50
37232;DHT22;23125;48.156;15.954;2022-12-05T12:22:23;9.60;65.20
37232;DHT22;23125;48.156;15.954;2022-12-05T12:25:21;9.60;65.10
37232;DHT22;23125;48.156;15.954;2022-12-05T12:36:29;9.50;64.80
37232;DHT22;23125;48.156;15.954;2022-12-05T12:47:29;9.40;64.80
37232;DHT22;23125;48.156;15.954;2022-12-05T13:03:31;9.30;64.70
37232;DHT22;23125;48.156;15.954;2022-12-05T13:06:17;9.30;64.70
37232;DHT22;23125;48.156;15.954;2022-12-05T13:08:53;9.30;64.70
37232;DHT22;23125;48.156;15.954;2022-12-05T13:11:21;9.30;64.70
37232;DHT22;23125;48.156;15.954;2022-12-05T13:13:53;9.30;64.70
37232;DHT22;23125;48.156;15.954;2022-12-05T13:16:36;9.30;64.70
37232;DHT22;23125;48.156;15.954;2022-12-05T13:19:05;9.30;64.70
37232;DHT22;23125;48.156;15.954;2022-12-05T13:21:31;9.30;64.60
37232;DHT22;23125;48.156;15.954;2022-12-05T13:23:58;9.30;64.50
37232;DHT22;23125;48.156;15.954;2022-12-05T13:26:31;9.30;64.50
37232;DHT22;23125;48.156;15.954;2022-12-05T13:29:02;9.20;64.40
37232;DHT22;23125;48.156;15.954;2022-12-05T13:31:39;9.20;64.40
37232;DHT22;23125;48.156;15.954;2022-12-05T13:36:57;9.20;64.40
37232;DHT22;23125;48.156;15.954;2022-12-05T13:39:49;9.20;64.30
37232;DHT22;23125;48.156;15.954;2022-12-05T13:42:35;9.20;64.30
37232;DHT22;23125;48.156;15.954;2022-12-05T13:45:31;9.10;64.30
37232;DHT22;23125;48.156;15.954;2022-12-05T13:56:26;9.10;64.50
37232;DHT22;23125;48.156;15.954;2022-12-05T13:58:55;9.10;64.50
37232;DHT22;23125;48.156;15.954;2022-12-05T14:10:03;9.10;64.60
37232;DHT22;23125;48.156;15.954;2022-12-05T14:17:43;9.10;64.70
37232;DHT22;23125;48.156;15.954;2022-12-05T14:20:20;9.10;64.70
37232;DHT22;23125;48.156;15.954;2022-12-05T14:39:42;9.10;64.60
37232;DHT22;23125;48.156;15.954;2022-12-05T14:44:57;9.10;64.60
37232;DHT22;23125;48.156;15.954;2022-12-05T14:47:24;9.10;64.50
37232;DHT22;23125;48.156;15.954;2022-12-05T14:52:25;9.10;64.50
37232;DHT22;23125;48.156;15.954;2022-12-05T14:54:53;9.10;64.60
37232;DHT22;23125;48.156;15.954;2022-12-05T14:57:20;9.10;64.50
37232;DHT22;23125;48.156;15.954;2022-12-05T14:59:56;9.10;64.50
37232;DHT22;23125;48.156;15.954;2022-12-05T15:02:43;9.10;64.50
37232;DHT22;23125;48.156;15.954;2022-12-05T15:07:47;9.10;64.50
37232;DHT22;23125;48.156;15.954;2022-12-05T15:10:34;9.10;64.50
37232;DHT22;23125;48.156;15.954;2022-12-05T15:13:14;9.10;64.40
37232;DHT22;23125;48.156;15.954;2022-12-05T15:15:43;9.10;65.10
37232;DHT22;23125;48.156;15.954;2022-12-05T15:18:20;9.10;64.50
37232;DHT22;23125;48.156;15.954;2022-12-05T15:23:43;9.00;64.50
37232;DHT22;23125;48.156;15.954;2022-12-05T15:29:09;9.00;65.10
37232;DHT22;23125;48.156;15.954;2022-12-05T15:32:13;9.00;64.30
37232;DHT22;23125;48.156;15.954;2022-12-05T15:40:17;9.00;64.50
37232;DHT22;23125;48.156;15.954;2022-12-05T15:42:55;9.00;64.60
37232;DHT22;23125;48.156;15.954;2022-12-05T15:45:27;9.00;64.60
37232;DHT22;23125;48.156;15.954;2022-12-05T15:48:11;9.00;64.70
37232;DHT22;23125;48.156;15.954;2022-12-05T15:50:42;9.00;64.70
37232;DHT22;23125;48.156;15.954;2022-12-05T15:55:51;9.00;64.50
37232;DHT22;23125;48.156;15.954;2022-12-05T15:58:25;9.00;64.50
37232;DHT22;23125;48.156;15.954;2022-12-05T16:00:56;9.00;64.50
37232;DHT22;23125;48.156;15.954;2022-12-05T16:03:27;9.00;64.60
37232;DHT22;23125;48.156;15.954;2022-12-05T16:06:03;9.00;64.50
37232;DHT22;23125;48.156;15.954;2022-12-05T16:08:29;9.00;64.60
37232;DHT22;23125;48.156;15.954;2022-12-05T16:11:09;9.00;64.50
37232;DHT22;23125;48.156;15.954;2022-12-05T16:13:40;9.00;64.50
37232;DHT22;23125;48.156;15.954;2022-12-05T16:16:07;9.00;64.60
37232;DHT22;23125;48.156;15.954;2022-12-05T16:18:36;9.00;64.50
37232;DHT22;23125;48.156;15.954;2022-12-05T16:21:02;9.00;64.50
37232;DHT22;23125;48.156;15.954;2022-12-05T16:23:48;9.00;64.50
37232;DHT22;23125;48.156;15.954;2022-12-05T16:26:24;8.90;64.40
37232;DHT22;23125;48.156;15.954;2022-12-05T16:29:00;8.90;64.50
37232;DHT22;23125;48.156;15.954;2022-12-05T16:31:30;8.90;64.50
37232;DHT22;23125;48.156;15.954;2022-12-05T16:34:05;8.90;64.50
37232;DHT22;23125;48.156;15.954;2022-12-05T16:36:32;8.90;64.60
37232;DHT22;23125;48.156;15.954;2022-12-05T16:39:05;8.90;64.70
37232;DHT22;23125;48.156;15.954;2022-12-05T16:41:38;8.90;64.60
37232;DHT22;23125;48.156;15.954;2022-12-05T16:44:25;8.90;64.70
37232;DHT22;23125;48.156;15.954;2022-12-05T16:46:51;8.90;64.70
37232;DHT22;23125;48.156;15.954;2022-12-05T16:49:18;8.90;64.70
37232;DHT22;23125;48.156;15.954;2022-12-05T16:51:53;8.90;64.70
37232;DHT22;23125;48.156;15.954;2022-12-05T16:54:20;8.90;64.80
37232;DHT22;23125;48.156;15.954;2022-12-05T16:56:46;8.90;64.80
37232;DHT22;23125;48.156;15.954;2022-12-05T17:01:52;8.90;64.70
37232;DHT22;23125;48.156;15.954;2022-12-05T17:04:18;8.90;64.70
37232;DHT22;23125;48.156;15.954;2022-12-05T17:06:44;9.00;64.80
37232;DHT22;23125;48.156;15.954;2022-12-05T17:09:10;9.00;64.80
37232;DHT22;23125;48.156;15.954;2022-12-05T17:11:39;9.00;64.80
37232;DHT22;23125;48.156;15.954;2022-12-05T17:14:06;9.00;64.80
37232;DHT22;23125;48.156;15.954;2022-12-05T17:16:34;9.00;64.80
37232;DHT22;23125;48.156;15.954;2022-12-05T17:19:00;9.00;64.80
37232;DHT22;23125;48.156;15.954;2022-12-05T17:21:29;9.00;64.80
37232;DHT22;23125;48.156;15.954;2022-12-05T17:23:56;9.00;64.80
37232;DHT22;23125;48.156;15.954;2022-12-05T17:26:23;9.00;64.80
37232;DHT22;23125;48.156;15.954;2022-12-05T17:28:49;9.00;64.70
37232;DHT22;23125;48.156;15.954;2022-12-05T17:31:19;9.10;64.70
37232;DHT22;23125;48.156;15.954;2022-12-05T17:33:46;9.00;64.60
37232;DHT22;23125;48.156;15.954;2022-12-05T17:36:12;9.10;64.70
37232;DHT22;23125;48.156;15.954;2022-12-05T17:38:39;9.00;64.60
37232;DHT22;23125;48.156;15.954;2022-12-05T17:41:05;9.00;64.70
37232;DHT22;23125;48.156;15.954;2022-12-05T17:43:31;9.00;64.80
37232;DHT22;23125;48.156;15.954;2022-12-05T17:46:01;9.00;64.80
37232;DHT22;23125;48.156;15.954;2022-12-05T17:48:26;9.00;64.80
37232;DHT22;23125;48.156;15.954;2022-12-05T17:50:53;9.00;64.80
37232;DHT22;23125;48.156;15.954;2022-12-05T17:53:23;9.00;64.80
37232;DHT22;23125;48.156;15.954;2022-12-05T17:55:49;9.10;64.90
37232;DHT22;23125;48.156;15.954;2022-12-05T17:58:15;9.00;64.70
37232;DHT22;23125;48.156;15.954;2022-12-05T18:00:42;9.00;64.80
37232;DHT22;23125;48.156;15.954;2022-12-05T18:03:14;9.00;64.80
37232;DHT22;23125;48.156;15.954;2022-12-05T18:05:40;9.00;64.90
37232;DHT22;23125;48.156;15.954;2022-12-05T18:08:06;9.00;64.90
37232;DHT22;23125;48.156;15.954;2022-12-05T18:10:33;9.00;64.90
37232;DHT22;23125;48.156;15.954;2022-12-05T18:12:58;9.00;64.80
37232;DHT22;23125;48.156;15.954;2022-12-05T18:15:24;9.00;64.70
37232;DHT22;23125;48.156;15.954;2022-12-05T18:17:50;9.00;64.50
37232;DHT22;23125;48.156;15.954;2022-12-05T18:20:16;9.00;64.60
37232;DHT22;23125;48.156;15.954;2022-12-05T18:22:42;9.00;64.80
37232;DHT22;23125;48.156;15.954;2022-12-05T18:25:09;9.00;64.90
37232;DHT22;23125;48.156;15.954;2022-12-05T18:27:36;9.00;64.80
37232;DHT22;23125;48.156;15.954;2022-12-05T18:30:04;9.00;64.80
37232;DHT22;23125;48.156;15.954;2022-12-05T18:32:30;9.00;64.80
37232;DHT22;23125;48.156;15.954;2022-12-05T18:34:56;9.00;64.90
37232;DHT22;23125;48.156;15.954;2022-12-05T18:37:26;9.00;65.00
37232;DHT22;23125;48.156;15.954;2022-12-05T18:39:55;9.00;64.90
37232;DHT22;23125;48.156;15.954;2022-12-05T18:42:21;9.00;64.90
37232;DHT22;23125;48.156;15.954;2022-12-05T18:44:47;9.00;65.00
37232;DHT22;23125;48.156;15.954;2022-12-05T18:47:14;9.00;65.00
37232;DHT22;23125;48.156;15.954;2022-12-05T18:49:41;9.00;65.00
37232;DHT22;23125;48.156;15.954;2022-12-05T18:52:07;9.00;65.00
37232;DHT22;23125;48.156;15.954;2022-12-05T18:54:33;9.00;65.00
37232;DHT22;23125;48.156;15.954;2022-12-05T18:56:59;9.00;64.90
37232;DHT22;23125;48.156;15.954;2022-12-05T18:59:24;9.00;64.90
37232;DHT22;23125;48.156;15.954;2022-12-05T19:01:50;9.00;65.00
37232;DHT22;23125;48.156;15.954;2022-12-05T19:04:18;9.00;65.00
37232;DHT22;23125;48.156;15.954;2022-12-05T19:06:49;9.00;65.00
37232;DHT22;23125;48.156;15.954;2022-12-05T19:09:17;9.10;65.10
37232;DHT22;23125;48.156;15.954;2022-12-05T19:11:46;9.10;65.10
37232;DHT22;23125;48.156;15.954;2022-12-05T19:14:14;9.10;65.10
37232;DHT22;23125;48.156;15.954;2022-12-05T19:16:40;9.10;65.10